This is the latest recevied weather packets stored in our database for station/object KK7MLS-13. If no packets are shown the sender has not sent any weather packets the latest 10 day(s).
| Time | Temp. | Humidity | Pressure | Rain* | Wind** | Luminosity | Snow |
|---|---|---|---|---|---|---|---|
| 1787966661 | 23.89° C | 47% | 1015.4 hPa | 0 mm | - | 36 W/m² | - |
| 1787966360 | 23.89° C | 48% | 1015.5 hPa | 0 mm | - | 36 W/m² | - |
| 1787966061 | 24.44° C | 45% | 1015.6 hPa | 0 mm | - | 48 W/m² | - |
| 1787965749 | 25° C | 45% | 1015.5 hPa | 0 mm | - | 94 W/m² | - |
| 1787965449 | 24.44° C | 49% | 1015.4 hPa | 0 mm | - | 97 W/m² | - |
| 1787965148 | 23.89° C | 47% | 1015.4 hPa | 0 mm | - | 73 W/m² | - |
| 1787964843 | 24.44° C | 46% | 1015.6 hPa | 0 mm | - | 36 W/m² | - |
| 1787964539 | 25° C | 44% | 1015.7 hPa | 0 mm | - | 44 W/m² | - |
| 1787964234 | 25° C | 46% | 1015.6 hPa | 0 mm | - | 81 W/m² | - |
| 1787963932 | 25.56° C | 44% | 1015.6 hPa | 0 mm | - | 76 W/m² | - |
| 1787963628 | 26.67° C | 43% | 1015.5 hPa | 0 mm | - | 64 W/m² | - |
| 1787963323 | 27.78° C | 41% | 1015.6 hPa | 0 mm | - | 77 W/m² | - |
| 1787963017 | 28.33° C | 39% | 1015.8 hPa | 0 mm | - | 286 W/m² | - |
| 1787962717 | 27.78° C | 40% | 1015.8 hPa | 0 mm | - | 296 W/m² | - |
| 1787962416 | 28.33° C | 38% | 1015.7 hPa | 0 mm | - | 312 W/m² | - |
| 1787962116 | 27.78° C | 41% | 1015.6 hPa | 0 mm | - | 330 W/m² | - |
| 1787961816 | 28.33° C | 38% | 1015.6 hPa | 0 mm | - | 319 W/m² | - |
| 1787961514 | 28.89° C | 37% | 1015.8 hPa | 0 mm | - | 67 W/m² | - |
| 1787961209 | 28.33° C | 38% | 1015.8 hPa | 0 mm | - | 341 W/m² | - |
| 1787960908 | 27.78° C | 40% | 1015.9 hPa | 0 mm | - | 362 W/m² | - |
| 1787960603 | 27.22° C | 41% | 1015.7 hPa | 0 mm | - | 155 W/m² | - |
| 1787960302 | 26.11° C | 44% | 1016 hPa | 0 mm | - | 247 W/m² | - |
| 1787959996 | 25° C | 45% | 1016.1 hPa | 0 mm | - | 452 W/m² | - |
| 1787959691 | 24.44° C | 46% | 1015.9 hPa | 0 mm | - | 437 W/m² | - |
| 1787959387 | 25° C | 48% | 1016.1 hPa | 0 mm | - | 60 W/m² | - |
* Rain latest hour (hover to see other rain measurements)
** Current wind speed in m/s (hover to see current wind gust speed)